This is the latest recevied weather packets stored in our database for station/object YB2VNE-13. If no packets are shown the sender has not sent any weather packets the latest 10 day(s).
| Time | Temp. | Humidity | Pressure | Rain* | Wind** | Luminosity | Snow |
|---|---|---|---|---|---|---|---|
| 1777353710 | 30.56° C | 75% | 993 hPa | - | - | 0 W/m² | - |
| 1777353400 | 31.11° C | 73% | 993 hPa | - | - | 0 W/m² | - |
| 1777353091 | 30.56° C | 74% | 993 hPa | - | - | 0 W/m² | - |
| 1777352780 | 30.56° C | 74% | 993 hPa | - | - | 0 W/m² | - |
| 1777352470 | 31.11° C | 73% | 993 hPa | - | - | 0 W/m² | - |
| 1777352160 | 30° C | 77% | 993 hPa | - | - | 0 W/m² | - |
| 1777351850 | 30.56° C | 77% | 993 hPa | - | - | 0 W/m² | - |
| 1777351540 | 30.56° C | 75% | 994 hPa | - | - | 0 W/m² | - |
| 1777351230 | 30.56° C | 78% | 994 hPa | - | - | 0 W/m² | - |
| 1777350920 | 30.56° C | 78% | 994 hPa | - | - | 0 W/m² | - |
| 1777350614 | 30.56° C | 74% | 994 hPa | - | - | 0 W/m² | - |
| 1777350300 | 30° C | 78% | 994 hPa | - | - | 0 W/m² | - |
| 1777349990 | 30.56° C | 76% | 994 hPa | - | - | 0 W/m² | - |
| 1777349680 | 30° C | 77% | 994 hPa | - | - | 0 W/m² | - |
| 1777349370 | 30° C | 76% | 994 hPa | - | - | 0 W/m² | - |
| 1777349060 | 30° C | 78% | 994 hPa | - | - | 0 W/m² | - |
| 1777348750 | 30° C | 79% | 995 hPa | - | - | 0 W/m² | - |
| 1777348440 | 30° C | 79% | 995 hPa | - | - | 0 W/m² | - |
| 1777348130 | 30° C | 79% | 995 hPa | - | - | 0 W/m² | - |
| 1777347820 | 30° C | 80% | 995 hPa | - | - | 0 W/m² | - |
| 1777347510 | 29.44° C | 81% | 995 hPa | - | - | 0 W/m² | - |
| 1777347200 | 29.44° C | 83% | 995 hPa | - | - | 0 W/m² | - |
| 1777346890 | 30° C | 78% | 995 hPa | - | - | 0 W/m² | - |
| 1777346580 | 30° C | 80% | 995 hPa | - | - | 0 W/m² | - |
| 1777346270 | 29.44° C | 82% | 995 hPa | - | - | 0 W/m² | - |
* Rain since midnight (hover to see other rain measurements)
** Current wind speed in m/s (hover to see current wind gust speed)